sensor_id;sensor_type;location;lat;lon;timestamp;P1;durP1;ratioP1;P2;durP2;ratioP2
83511;SDS011;73446;0.000;0.000;2024-02-21T00:01:06;0.63;;;0.63;;
83511;SDS011;73446;0.000;0.000;2024-02-21T00:03:50;0.85;;;0.05;;
83511;SDS011;73446;0.000;0.000;2024-02-21T00:06:34;0.85;;;0.32;;
83511;SDS011;73446;0.000;0.000;2024-02-21T00:09:19;1.05;;;0.10;;
83511;SDS011;73446;0.000;0.000;2024-02-21T00:12:03;1.02;;;0.38;;
83511;SDS011;73446;0.000;0.000;2024-02-21T00:14:49;0.32;;;0.00;;
83511;SDS011;73446;0.000;0.000;2024-02-21T00:17:33;1.00;;;0.17;;
83511;SDS011;73446;0.000;0.000;2024-02-21T00:20:17;0.75;;;0.00;;
83511;SDS011;73446;0.000;0.000;2024-02-21T00:23:01;0.25;;;0.10;;
83511;SDS011;73446;0.000;0.000;2024-02-21T00:25:45;0.47;;;0.47;;
83511;SDS011;73446;0.000;0.000;2024-02-21T00:28:29;1.17;;;0.40;;
83511;SDS011;73446;0.000;0.000;2024-02-21T00:31:13;1.13;;;0.28;;
83511;SDS011;73446;0.000;0.000;2024-02-21T00:33:57;0.50;;;0.10;;
83511;SDS011;73446;0.000;0.000;2024-02-21T00:36:41;0.85;;;0.35;;
83511;SDS011;73446;0.000;0.000;2024-02-21T00:39:25;0.95;;;0.15;;
83511;SDS011;73446;0.000;0.000;2024-02-21T00:42:09;0.55;;;0.40;;
83511;SDS011;73446;0.000;0.000;2024-02-21T00:44:53;0.85;;;0.17;;
83511;SDS011;73446;0.000;0.000;2024-02-21T00:47:37;0.85;;;0.13;;
83511;SDS011;73446;0.000;0.000;2024-02-21T00:50:21;0.40;;;0.00;;
83511;SDS011;73446;0.000;0.000;2024-02-21T00:53:05;1.45;;;0.57;;
83511;SDS011;73446;0.000;0.000;2024-02-21T00:55:49;1.15;;;0.28;;
83511;SDS011;73446;0.000;0.000;2024-02-21T00:58:33;0.30;;;0.03;;
83511;SDS011;73446;0.000;0.000;2024-02-21T01:01:21;0.57;;;0.57;;
83511;SDS011;73446;0.000;0.000;2024-02-21T01:04:06;0.90;;;0.03;;
83511;SDS011;73446;0.000;0.000;2024-02-21T01:06:50;0.40;;;0.35;;
83511;SDS011;73446;0.000;0.000;2024-02-21T01:09:34;0.35;;;0.05;;
83511;SDS011;73446;0.000;0.000;2024-02-21T01:12:18;0.40;;;0.08;;
83511;SDS011;73446;0.000;0.000;2024-02-21T01:15:03;0.35;;;0.28;;
83511;SDS011;73446;0.000;0.000;2024-02-21T01:17:47;0.80;;;0.10;;
83511;SDS011;73446;0.000;0.000;2024-02-21T01:20:31;0.57;;;0.08;;
83511;SDS011;73446;0.000;0.000;2024-02-21T01:23:15;0.52;;;0.10;;
83511;SDS011;73446;0.000;0.000;2024-02-21T01:25:59;0.40;;;0.32;;
83511;SDS011;73446;0.000;0.000;2024-02-21T01:28:43;0.45;;;0.00;;
83511;SDS011;73446;0.000;0.000;2024-02-21T01:31:27;0.35;;;0.32;;
83511;SDS011;73446;0.000;0.000;2024-02-21T01:34:12;0.30;;;0.03;;
83511;SDS011;73446;0.000;0.000;2024-02-21T01:36:56;0.85;;;0.32;;
83511;SDS011;73446;0.000;0.000;2024-02-21T01:39:40;1.20;;;0.17;;
83511;SDS011;73446;0.000;0.000;2024-02-21T01:42:24;0.70;;;0.47;;
83511;SDS011;73446;0.000;0.000;2024-02-21T01:45:08;0.35;;;0.22;;
83511;SDS011;73446;0.000;0.000;2024-02-21T01:47:54;0.28;;;0.00;;
83511;SDS011;73446;0.000;0.000;2024-02-21T01:50:38;0.60;;;0.20;;
83511;SDS011;73446;0.000;0.000;2024-02-21T01:53:23;0.57;;;0.57;;
83511;SDS011;73446;0.000;0.000;2024-02-21T01:56:12;0.52;;;0.30;;
83511;SDS011;73446;0.000;0.000;2024-02-21T01:58:56;0.50;;;0.35;;
83511;SDS011;73446;0.000;0.000;2024-02-21T02:01:40;0.90;;;0.00;;
83511;SDS011;73446;0.000;0.000;2024-02-21T02:04:25;0.32;;;0.00;;
83511;SDS011;73446;0.000;0.000;2024-02-21T02:07:10;0.45;;;0.43;;
83511;SDS011;73446;0.000;0.000;2024-02-21T02:09:54;0.70;;;0.35;;
83511;SDS011;73446;0.000;0.000;2024-02-21T02:12:38;0.70;;;0.38;;
83511;SDS011;73446;0.000;0.000;2024-02-21T02:15:22;0.80;;;0.30;;
83511;SDS011;73446;0.000;0.000;2024-02-21T02:18:07;0.22;;;0.15;;
83511;SDS011;73446;0.000;0.000;2024-02-21T02:20:51;0.73;;;0.73;;
83511;SDS011;73446;0.000;0.000;2024-02-21T02:23:36;0.30;;;0.22;;
83511;SDS011;73446;0.000;0.000;2024-02-21T02:26:20;0.93;;;0.52;;
83511;SDS011;73446;0.000;0.000;2024-02-21T02:29:05;0.60;;;0.35;;
83511;SDS011;73446;0.000;0.000;2024-02-21T02:31:49;0.32;;;0.15;;
83511;SDS011;73446;0.000;0.000;2024-02-21T02:34:33;1.08;;;0.52;;
83511;SDS011;73446;0.000;0.000;2024-02-21T02:37:17;0.45;;;0.30;;
83511;SDS011;73446;0.000;0.000;2024-02-21T02:40:01;0.60;;;0.25;;
83511;SDS011;73446;0.000;0.000;2024-02-21T02:42:46;1.05;;;0.40;;
83511;SDS011;73446;0.000;0.000;2024-02-21T02:45:32;0.70;;;0.28;;
83511;SDS011;73446;0.000;0.000;2024-02-21T02:48:17;0.32;;;0.32;;
83511;SDS011;73446;0.000;0.000;2024-02-21T02:51:01;1.02;;;0.45;;
83511;SDS011;73446;0.000;0.000;2024-02-21T02:53:45;0.45;;;0.05;;
83511;SDS011;73446;0.000;0.000;2024-02-21T02:56:29;0.77;;;0.40;;
83511;SDS011;73446;0.000;0.000;2024-02-21T02:59:13;0.35;;;0.32;;
83511;SDS011;73446;0.000;0.000;2024-02-21T03:01:56;0.98;;;0.00;;
83511;SDS011;73446;0.000;0.000;2024-02-21T03:04:40;0.40;;;0.10;;
83511;SDS011;73446;0.000;0.000;2024-02-21T03:07:25;0.55;;;0.05;;
83511;SDS011;73446;0.000;0.000;2024-02-21T03:10:09;0.52;;;0.03;;
83511;SDS011;73446;0.000;0.000;2024-02-21T03:12:53;0.35;;;0.25;;
83511;SDS011;73446;0.000;0.000;2024-02-21T03:15:37;0.50;;;0.13;;
83511;SDS011;73446;0.000;0.000;2024-02-21T03:18:22;0.25;;;0.00;;
83511;SDS011;73446;0.000;0.000;2024-02-21T03:21:06;0.43;;;0.05;;
83511;SDS011;73446;0.000;0.000;2024-02-21T03:23:50;0.40;;;0.25;;
83511;SDS011;73446;0.000;0.000;2024-02-21T03:26:34;0.30;;;0.05;;
83511;SDS011;73446;0.000;0.000;2024-02-21T03:29:18;0.57;;;0.43;;
83511;SDS011;73446;0.000;0.000;2024-02-21T03:32:02;0.38;;;0.20;;
83511;SDS011;73446;0.000;0.000;2024-02-21T03:34:46;0.43;;;0.40;;
83511;SDS011;73446;0.000;0.000;2024-02-21T03:37:30;0.30;;;0.00;;
83511;SDS011;73446;0.000;0.000;2024-02-21T03:40:14;0.08;;;0.00;;
83511;SDS011;73446;0.000;0.000;2024-02-21T03:42:59;0.25;;;0.00;;
83511;SDS011;73446;0.000;0.000;2024-02-21T03:45:43;1.08;;;0.03;;
83511;SDS011;73446;0.000;0.000;2024-02-21T03:48:27;0.60;;;0.60;;
83511;SDS011;73446;0.000;0.000;2024-02-21T03:51:11;0.68;;;0.43;;
83511;SDS011;73446;0.000;0.000;2024-02-21T03:53:55;0.17;;;0.03;;
83511;SDS011;73446;0.000;0.000;2024-02-21T03:56:39;0.52;;;0.40;;
83511;SDS011;73446;0.000;0.000;2024-02-21T03:59:26;0.73;;;0.17;;
83511;SDS011;73446;0.000;0.000;2024-02-21T04:02:10;0.70;;;0.05;;
83511;SDS011;73446;0.000;0.000;2024-02-21T04:04:54;0.25;;;0.25;;
83511;SDS011;73446;0.000;0.000;2024-02-21T04:07:38;0.75;;;0.32;;
83511;SDS011;73446;0.000;0.000;2024-02-21T04:10:22;0.63;;;0.30;;
83511;SDS011;73446;0.000;0.000;2024-02-21T04:13:06;0.10;;;0.03;;
83511;SDS011;73446;0.000;0.000;2024-02-21T04:15:51;0.17;;;0.13;;
83511;SDS011;73446;0.000;0.000;2024-02-21T04:18:35;0.40;;;0.15;;
83511;SDS011;73446;0.000;0.000;2024-02-21T04:21:19;0.10;;;0.03;;
83511;SDS011;73446;0.000;0.000;2024-02-21T04:24:03;0.50;;;0.35;;
83511;SDS011;73446;0.000;0.000;2024-02-21T04:26:49;0.32;;;0.22;;
83511;SDS011;73446;0.000;0.000;2024-02-21T04:29:33;0.47;;;0.08;;
83511;SDS011;73446;0.000;0.000;2024-02-21T04:32:17;0.30;;;0.30;;
83511;SDS011;73446;0.000;0.000;2024-02-21T04:35:02;0.50;;;0.35;;
83511;SDS011;73446;0.000;0.000;2024-02-21T04:37:45;0.45;;;0.13;;
83511;SDS011;73446;0.000;0.000;2024-02-21T04:40:30;0.32;;;0.15;;
83511;SDS011;73446;0.000;0.000;2024-02-21T04:43:14;0.22;;;0.08;;
83511;SDS011;73446;0.000;0.000;2024-02-21T04:45:58;0.10;;;0.00;;
83511;SDS011;73446;0.000;0.000;2024-02-21T04:48:42;0.43;;;0.32;;
83511;SDS011;73446;0.000;0.000;2024-02-21T04:51:26;0.35;;;0.15;;
83511;SDS011;73446;0.000;0.000;2024-02-21T04:54:10;0.10;;;0.03;;
83511;SDS011;73446;0.000;0.000;2024-02-21T04:56:54;0.40;;;0.40;;
83511;SDS011;73446;0.000;0.000;2024-02-21T04:59:38;0.45;;;0.40;;
83511;SDS011;73446;0.000;0.000;2024-02-21T05:02:23;0.50;;;0.15;;
83511;SDS011;73446;0.000;0.000;2024-02-21T05:05:07;0.52;;;0.38;;
83511;SDS011;73446;0.000;0.000;2024-02-21T05:07:51;0.30;;;0.00;;
83511;SDS011;73446;0.000;0.000;2024-02-21T05:10:35;0.50;;;0.13;;
83511;SDS011;73446;0.000;0.000;2024-02-21T05:13:19;0.52;;;0.22;;
83511;SDS011;73446;0.000;0.000;2024-02-21T05:16:04;0.40;;;0.40;;
83511;SDS011;73446;0.000;0.000;2024-02-21T05:18:48;0.20;;;0.03;;
83511;SDS011;73446;0.000;0.000;2024-02-21T05:21:32;0.88;;;0.03;;
83511;SDS011;73446;0.000;0.000;2024-02-21T05:24:17;0.63;;;0.25;;
83511;SDS011;73446;0.000;0.000;2024-02-21T05:27:01;0.35;;;0.35;;
83511;SDS011;73446;0.000;0.000;2024-02-21T05:29:45;0.28;;;0.25;;
83511;SDS011;73446;0.000;0.000;2024-02-21T05:32:29;0.50;;;0.25;;
83511;SDS011;73446;0.000;0.000;2024-02-21T05:35:13;0.20;;;0.05;;
83511;SDS011;73446;0.000;0.000;2024-02-21T05:37:57;0.68;;;0.17;;
83511;SDS011;73446;0.000;0.000;2024-02-21T05:40:41;0.88;;;0.52;;
83511;SDS011;73446;0.000;0.000;2024-02-21T05:43:25;0.47;;;0.47;;
83511;SDS011;73446;0.000;0.000;2024-02-21T05:46:09;0.20;;;0.00;;
83511;SDS011;73446;0.000;0.000;2024-02-21T05:48:54;0.55;;;0.55;;
83511;SDS011;73446;0.000;0.000;2024-02-21T05:51:38;0.25;;;0.25;;
83511;SDS011;73446;0.000;0.000;2024-02-21T05:54:22;0.82;;;0.40;;
83511;SDS011;73446;0.000;0.000;2024-02-21T05:57:07;0.30;;;0.15;;
83511;SDS011;73446;0.000;0.000;2024-02-21T05:59:51;0.82;;;0.40;;
83511;SDS011;73446;0.000;0.000;2024-02-21T06:02:35;0.15;;;0.03;;
83511;SDS011;73446;0.000;0.000;2024-02-21T06:05:20;0.43;;;0.35;;
83511;SDS011;73446;0.000;0.000;2024-02-21T06:08:04;0.30;;;0.00;;
83511;SDS011;73446;0.000;0.000;2024-02-21T06:10:48;1.30;;;0.45;;
83511;SDS011;73446;0.000;0.000;2024-02-21T06:13:32;1.77;;;0.82;;
83511;SDS011;73446;0.000;0.000;2024-02-21T06:16:16;1.92;;;0.90;;
83511;SDS011;73446;0.000;0.000;2024-02-21T06:19:00;1.65;;;0.75;;
83511;SDS011;73446;0.000;0.000;2024-02-21T06:21:44;0.88;;;0.17;;
83511;SDS011;73446;0.000;0.000;2024-02-21T06:24:28;0.63;;;0.15;;
83511;SDS011;73446;0.000;0.000;2024-02-21T06:27:12;1.13;;;0.35;;
83511;SDS011;73446;0.000;0.000;2024-02-21T06:29:58;0.98;;;0.80;;
83511;SDS011;73446;0.000;0.000;2024-02-21T06:32:42;0.75;;;0.47;;
83511;SDS011;73446;0.000;0.000;2024-02-21T06:35:26;1.92;;;0.60;;
83511;SDS011;73446;0.000;0.000;2024-02-21T06:38:10;1.88;;;0.40;;
83511;SDS011;73446;0.000;0.000;2024-02-21T06:40:54;1.35;;;0.47;;
83511;SDS011;73446;0.000;0.000;2024-02-21T06:43:38;0.77;;;0.13;;
83511;SDS011;73446;0.000;0.000;2024-02-21T06:46:23;0.77;;;0.35;;
83511;SDS011;73446;0.000;0.000;2024-02-21T06:49:10;1.33;;;0.22;;
83511;SDS011;73446;0.000;0.000;2024-02-21T06:51:59;1.33;;;0.43;;
83511;SDS011;73446;0.000;0.000;2024-02-21T06:54:43;1.00;;;0.13;;
83511;SDS011;73446;0.000;0.000;2024-02-21T06:57:28;1.30;;;0.28;;
83511;SDS011;73446;0.000;0.000;2024-02-21T07:00:12;4.32;;;0.20;;
83511;SDS011;73446;0.000;0.000;2024-02-21T07:02:57;1.15;;;0.70;;
83511;SDS011;73446;0.000;0.000;2024-02-21T07:05:41;1.85;;;0.32;;
83511;SDS011;73446;0.000;0.000;2024-02-21T07:08:25;3.70;;;0.45;;
83511;SDS011;73446;0.000;0.000;2024-02-21T07:11:10;2.33;;;0.35;;
83511;SDS011;73446;0.000;0.000;2024-02-21T07:13:54;3.15;;;0.40;;
83511;SDS011;73446;0.000;0.000;2024-02-21T07:16:38;4.70;;;0.32;;
83511;SDS011;73446;0.000;0.000;2024-02-21T07:19:22;1.48;;;0.30;;
83511;SDS011;73446;0.000;0.000;2024-02-21T07:22:07;2.72;;;0.35;;
83511;SDS011;73446;0.000;0.000;2024-02-21T07:24:51;2.50;;;0.40;;
83511;SDS011;73446;0.000;0.000;2024-02-21T07:27:35;4.38;;;0.98;;
83511;SDS011;73446;0.000;0.000;2024-02-21T07:30:19;1.33;;;1.00;;
83511;SDS011;73446;0.000;0.000;2024-02-21T07:33:03;0.85;;;0.15;;
83511;SDS011;73446;0.000;0.000;2024-02-21T07:35:48;1.17;;;0.52;;
83511;SDS011;73446;0.000;0.000;2024-02-21T07:38:32;0.40;;;0.32;;
83511;SDS011;73446;0.000;0.000;2024-02-21T07:41:16;0.32;;;0.25;;
83511;SDS011;73446;0.000;0.000;2024-02-21T07:44:01;0.93;;;0.03;;
83511;SDS011;73446;0.000;0.000;2024-02-21T07:46:45;1.13;;;0.30;;
83511;SDS011;73446;0.000;0.000;2024-02-21T07:49:29;0.90;;;0.43;;
83511;SDS011;73446;0.000;0.000;2024-02-21T07:52:13;0.63;;;0.40;;
83511;SDS011;73446;0.000;0.000;2024-02-21T07:54:57;0.88;;;0.03;;
83511;SDS011;73446;0.000;0.000;2024-02-21T07:57:41;0.63;;;0.17;;
83511;SDS011;73446;0.000;0.000;2024-02-21T08:00:25;0.50;;;0.15;;
83511;SDS011;73446;0.000;0.000;2024-02-21T08:03:10;1.40;;;0.35;;
83511;SDS011;73446;0.000;0.000;2024-02-21T08:05:54;0.50;;;0.13;;
83511;SDS011;73446;0.000;0.000;2024-02-21T08:08:38;0.52;;;0.38;;
83511;SDS011;73446;0.000;0.000;2024-02-21T08:11:22;0.60;;;0.15;;
83511;SDS011;73446;0.000;0.000;2024-02-21T08:14:06;0.32;;;0.28;;
83511;SDS011;73446;0.000;0.000;2024-02-21T08:16:51;0.32;;;0.32;;
83511;SDS011;73446;0.000;0.000;2024-02-21T08:19:36;0.50;;;0.05;;
83511;SDS011;73446;0.000;0.000;2024-02-21T08:22:20;0.40;;;0.00;;
83511;SDS011;73446;0.000;0.000;2024-02-21T08:25:05;0.17;;;0.05;;
83511;SDS011;73446;0.000;0.000;2024-02-21T08:27:49;1.92;;;0.38;;
83511;SDS011;73446;0.000;0.000;2024-02-21T08:30:35;0.95;;;0.50;;
83511;SDS011;73446;0.000;0.000;2024-02-21T08:33:19;0.40;;;0.22;;
83511;SDS011;73446;0.000;0.000;2024-02-21T08:36:08;1.00;;;0.38;;
83511;SDS011;73446;0.000;0.000;2024-02-21T08:38:52;0.82;;;0.08;;
83511;SDS011;73446;0.000;0.000;2024-02-21T08:41:36;0.45;;;0.32;;
83511;SDS011;73446;0.000;0.000;2024-02-21T08:44:22;0.15;;;0.00;;
83511;SDS011;73446;0.000;0.000;2024-02-21T08:47:08;0.30;;;0.15;;
83511;SDS011;73446;0.000;0.000;2024-02-21T08:49:53;0.60;;;0.25;;
83511;SDS011;73446;0.000;0.000;2024-02-21T08:52:37;1.10;;;0.57;;
83511;SDS011;73446;0.000;0.000;2024-02-21T08:55:21;1.27;;;0.73;;
83511;SDS011;73446;0.000;0.000;2024-02-21T08:58:06;0.32;;;0.25;;
83511;SDS011;73446;0.000;0.000;2024-02-21T09:00:49;0.40;;;0.38;;
83511;SDS011;73446;0.000;0.000;2024-02-21T09:03:35;0.28;;;0.22;;
83511;SDS011;73446;0.000;0.000;2024-02-21T09:06:22;0.45;;;0.08;;
83511;SDS011;73446;0.000;0.000;2024-02-21T09:09:06;0.73;;;0.63;;
83511;SDS011;73446;0.000;0.000;2024-02-21T09:11:51;0.10;;;0.03;;
83511;SDS011;73446;0.000;0.000;2024-02-21T09:14:36;0.82;;;0.08;;
83511;SDS011;73446;0.000;0.000;2024-02-21T09:17:22;0.45;;;0.08;;
83511;SDS011;73446;0.000;0.000;2024-02-21T09:20:06;1.15;;;0.13;;
83511;SDS011;73446;0.000;0.000;2024-02-21T09:22:51;0.38;;;0.30;;
83511;SDS011;73446;0.000;0.000;2024-02-21T09:25:36;1.35;;;0.22;;
83511;SDS011;73446;0.000;0.000;2024-02-21T09:28:20;0.63;;;0.63;;
83511;SDS011;73446;0.000;0.000;2024-02-21T09:31:04;0.43;;;0.20;;
83511;SDS011;73446;0.000;0.000;2024-02-21T09:33:48;1.02;;;0.47;;
83511;SDS011;73446;0.000;0.000;2024-02-21T09:36:32;0.30;;;0.05;;
83511;SDS011;73446;0.000;0.000;2024-02-21T09:39:16;1.20;;;0.45;;
83511;SDS011;73446;0.000;0.000;2024-02-21T09:42:06;1.10;;;0.40;;
83511;SDS011;73446;0.000;0.000;2024-02-21T09:44:53;0.93;;;0.05;;
83511;SDS011;73446;0.000;0.000;2024-02-21T09:47:44;0.45;;;0.35;;
83511;SDS011;73446;0.000;0.000;2024-02-21T09:50:51;0.52;;;0.08;;
83511;SDS011;73446;0.000;0.000;2024-02-21T09:53:38;0.45;;;0.45;;
83511;SDS011;73446;0.000;0.000;2024-02-21T09:56:24;1.35;;;0.57;;
83511;SDS011;73446;0.000;0.000;2024-02-21T09:59:08;1.42;;;0.68;;
83511;SDS011;73446;0.000;0.000;2024-02-21T10:01:53;0.88;;;0.45;;
83511;SDS011;73446;0.000;0.000;2024-02-21T10:04:37;1.17;;;0.00;;
83511;SDS011;73446;0.000;0.000;2024-02-21T10:07:23;0.43;;;0.08;;
83511;SDS011;73446;0.000;0.000;2024-02-21T10:10:09;0.55;;;0.40;;
83511;SDS011;73446;0.000;0.000;2024-02-21T10:12:53;0.40;;;0.10;;
83511;SDS011;73446;0.000;0.000;2024-02-21T10:15:41;1.27;;;0.17;;
83511;SDS011;73446;0.000;0.000;2024-02-21T10:18:26;0.45;;;0.15;;
83511;SDS011;73446;0.000;0.000;2024-02-21T10:21:10;1.48;;;0.32;;
83511;SDS011;73446;0.000;0.000;2024-02-21T10:23:54;1.48;;;0.03;;
83511;SDS011;73446;0.000;0.000;2024-02-21T10:26:38;0.68;;;0.22;;
83511;SDS011;73446;0.000;0.000;2024-02-21T10:29:22;8.18;;;0.73;;
83511;SDS011;73446;0.000;0.000;2024-02-21T10:32:07;6.85;;;0.40;;
83511;SDS011;73446;0.000;0.000;2024-02-21T10:35:00;4.78;;;0.35;;
83511;SDS011;73446;0.000;0.000;2024-02-21T10:37:52;3.30;;;0.05;;
83511;SDS011;73446;0.000;0.000;2024-02-21T10:40:39;4.43;;;0.17;;
83511;SDS011;73446;0.000;0.000;2024-02-21T10:43:23;0.60;;;0.20;;
83511;SDS011;73446;0.000;0.000;2024-02-21T10:46:07;0.75;;;0.03;;
83511;SDS011;73446;0.000;0.000;2024-02-21T10:49:10;1.27;;;0.22;;
83511;SDS011;73446;0.000;0.000;2024-02-21T10:52:13;1.48;;;0.13;;
83511;SDS011;73446;0.000;0.000;2024-02-21T10:55:03;1.27;;;0.22;;
83511;SDS011;73446;0.000;0.000;2024-02-21T10:57:49;2.58;;;0.10;;
83511;SDS011;73446;0.000;0.000;2024-02-21T11:00:33;1.75;;;0.22;;
83511;SDS011;73446;0.000;0.000;2024-02-21T11:03:18;3.53;;;0.22;;
83511;SDS011;73446;0.000;0.000;2024-02-21T11:06:02;1.15;;;0.03;;
83511;SDS011;73446;0.000;0.000;2024-02-21T11:11:47;1.23;;;0.30;;
83511;SDS011;73446;0.000;0.000;2024-02-21T11:14:33;1.30;;;0.15;;
83511;SDS011;73446;0.000;0.000;2024-02-21T11:17:20;1.90;;;0.30;;
83511;SDS011;73446;0.000;0.000;2024-02-21T11:20:11;2.03;;;0.32;;
83511;SDS011;73446;0.000;0.000;2024-02-21T11:22:56;1.52;;;0.13;;
83511;SDS011;73446;0.000;0.000;2024-02-21T11:25:40;1.10;;;0.47;;
83511;SDS011;73446;0.000;0.000;2024-02-21T11:28:27;0.77;;;0.30;;
83511;SDS011;73446;0.000;0.000;2024-02-21T11:31:12;0.68;;;0.38;;
83511;SDS011;73446;0.000;0.000;2024-02-21T11:33:57;1.00;;;0.28;;
83511;SDS011;73446;0.000;0.000;2024-02-21T11:36:48;1.17;;;0.25;;
83511;SDS011;73446;0.000;0.000;2024-02-21T11:39:34;1.65;;;0.05;;
83511;SDS011;73446;0.000;0.000;2024-02-21T11:42:18;1.63;;;0.32;;
83511;SDS011;73446;0.000;0.000;2024-02-21T11:45:03;2.40;;;0.15;;
83511;SDS011;73446;0.000;0.000;2024-02-21T11:47:47;11.23;;;0.30;;
83511;SDS011;73446;0.000;0.000;2024-02-21T11:50:34;1.48;;;0.20;;
83511;SDS011;73446;0.000;0.000;2024-02-21T11:53:19;1.27;;;0.08;;
83511;SDS011;73446;0.000;0.000;2024-02-21T11:56:04;0.85;;;0.38;;
83511;SDS011;73446;0.000;0.000;2024-02-21T11:58:48;0.90;;;0.25;;
83511;SDS011;73446;0.000;0.000;2024-02-21T12:01:32;1.83;;;0.15;;
83511;SDS011;73446;0.000;0.000;2024-02-21T12:04:17;1.13;;;0.25;;
83511;SDS011;73446;0.000;0.000;2024-02-21T12:07:02;2.70;;;0.25;;
83511;SDS011;73446;0.000;0.000;2024-02-21T12:09:50;0.80;;;0.05;;
83511;SDS011;73446;0.000;0.000;2024-02-21T12:12:34;2.88;;;0.75;;
83511;SDS011;73446;0.000;0.000;2024-02-21T12:15:20;4.32;;;0.15;;
83511;SDS011;73446;0.000;0.000;2024-02-21T12:18:04;5.18;;;1.00;;
83511;SDS011;73446;0.000;0.000;2024-02-21T12:20:48;4.63;;;0.22;;
83511;SDS011;73446;0.000;0.000;2024-02-21T12:23:32;0.95;;;0.00;;
83511;SDS011;73446;0.000;0.000;2024-02-21T12:26:17;6.10;;;0.30;;
83511;SDS011;73446;0.000;0.000;2024-02-21T12:29:00;7.07;;;0.10;;
83511;SDS011;73446;0.000;0.000;2024-02-21T12:31:44;5.25;;;0.43;;
83511;SDS011;73446;0.000;0.000;2024-02-21T12:34:29;3.80;;;0.05;;
83511;SDS011;73446;0.000;0.000;2024-02-21T12:37:15;3.70;;;0.10;;
83511;SDS011;73446;0.000;0.000;2024-02-21T12:39:59;11.43;;;0.30;;
83511;SDS011;73446;0.000;0.000;2024-02-21T12:42:43;3.63;;;0.38;;
83511;SDS011;73446;0.000;0.000;2024-02-21T12:45:29;4.15;;;0.05;;
83511;SDS011;73446;0.000;0.000;2024-02-21T12:48:13;3.40;;;0.10;;
83511;SDS011;73446;0.000;0.000;2024-02-21T12:50:57;3.80;;;0.60;;
83511;SDS011;73446;0.000;0.000;2024-02-21T12:53:42;2.22;;;1.08;;
83511;SDS011;73446;0.000;0.000;2024-02-21T12:56:26;2.45;;;0.35;;
83511;SDS011;73446;0.000;0.000;2024-02-21T12:59:11;6.07;;;0.22;;
83511;SDS011;73446;0.000;0.000;2024-02-21T13:01:55;8.00;;;0.35;;
83511;SDS011;73446;0.000;0.000;2024-02-21T13:04:40;5.53;;;0.40;;
83511;SDS011;73446;0.000;0.000;2024-02-21T13:07:25;6.70;;;0.20;;
83511;SDS011;73446;0.000;0.000;2024-02-21T13:10:12;5.50;;;0.30;;
83511;SDS011;73446;0.000;0.000;2024-02-21T13:12:57;7.43;;;0.45;;
83511;SDS011;73446;0.000;0.000;2024-02-21T13:15:42;3.78;;;0.03;;
83511;SDS011;73446;0.000;0.000;2024-02-21T13:18:27;5.00;;;0.60;;
83511;SDS011;73446;0.000;0.000;2024-02-21T13:21:11;4.78;;;0.10;;
83511;SDS011;73446;0.000;0.000;2024-02-21T13:23:55;6.57;;;0.30;;
83511;SDS011;73446;0.000;0.000;2024-02-21T13:26:40;9.38;;;0.73;;
83511;SDS011;73446;0.000;0.000;2024-02-21T13:29:24;7.93;;;0.35;;
83511;SDS011;73446;0.000;0.000;2024-02-21T13:32:08;12.57;;;0.88;;
83511;SDS011;73446;0.000;0.000;2024-02-21T13:34:53;6.13;;;1.02;;
83511;SDS011;73446;0.000;0.000;2024-02-21T13:37:37;7.32;;;0.57;;
83511;SDS011;73446;0.000;0.000;2024-02-21T13:40:22;4.95;;;0.52;;
83511;SDS011;73446;0.000;0.000;2024-02-21T13:43:06;8.70;;;0.50;;
83511;SDS011;73446;0.000;0.000;2024-02-21T13:45:57;3.30;;;0.40;;
83511;SDS011;73446;0.000;0.000;2024-02-21T13:48:42;5.10;;;0.15;;
83511;SDS011;73446;0.000;0.000;2024-02-21T13:51:26;4.35;;;0.77;;
83511;SDS011;73446;0.000;0.000;2024-02-21T13:54:11;2.95;;;0.52;;
83511;SDS011;73446;0.000;0.000;2024-02-21T13:56:58;5.10;;;0.22;;
83511;SDS011;73446;0.000;0.000;2024-02-21T13:59:42;5.47;;;0.30;;
83511;SDS011;73446;0.000;0.000;2024-02-21T14:02:26;7.55;;;0.85;;
83511;SDS011;73446;0.000;0.000;2024-02-21T14:05:10;14.40;;;1.00;;
83511;SDS011;73446;0.000;0.000;2024-02-21T14:07:55;6.72;;;0.28;;
83511;SDS011;73446;0.000;0.000;2024-02-21T14:10:39;5.30;;;0.25;;
83511;SDS011;73446;0.000;0.000;2024-02-21T14:13:23;5.28;;;0.65;;
83511;SDS011;73446;0.000;0.000;2024-02-21T14:16:10;6.22;;;0.52;;
83511;SDS011;73446;0.000;0.000;2024-02-21T14:18:57;5.32;;;0.85;;
83511;SDS011;73446;0.000;0.000;2024-02-21T14:21:41;4.63;;;0.95;;
83511;SDS011;73446;0.000;0.000;2024-02-21T14:24:25;4.10;;;0.47;;
83511;SDS011;73446;0.000;0.000;2024-02-21T14:27:11;1.92;;;0.05;;
83511;SDS011;73446;0.000;0.000;2024-02-21T14:29:56;2.65;;;0.45;;
83511;SDS011;73446;0.000;0.000;2024-02-21T14:32:41;3.83;;;0.45;;
83511;SDS011;73446;0.000;0.000;2024-02-21T14:35:27;2.17;;;0.32;;
83511;SDS011;73446;0.000;0.000;2024-02-21T14:38:11;4.72;;;0.98;;
83511;SDS011;73446;0.000;0.000;2024-02-21T14:40:55;1.83;;;0.25;;
83511;SDS011;73446;0.000;0.000;2024-02-21T14:43:39;4.70;;;0.38;;
83511;SDS011;73446;0.000;0.000;2024-02-21T14:46:23;5.63;;;0.55;;
83511;SDS011;73446;0.000;0.000;2024-02-21T14:49:07;3.38;;;0.38;;
83511;SDS011;73446;0.000;0.000;2024-02-21T14:51:51;2.63;;;0.30;;
83511;SDS011;73446;0.000;0.000;2024-02-21T14:54:37;2.85;;;0.47;;
83511;SDS011;73446;0.000;0.000;2024-02-21T14:57:21;1.67;;;0.25;;
83511;SDS011;73446;0.000;0.000;2024-02-21T15:00:07;2.25;;;0.43;;
83511;SDS011;73446;0.000;0.000;2024-02-21T15:02:52;2.20;;;0.05;;
83511;SDS011;73446;0.000;0.000;2024-02-21T15:05:36;2.45;;;0.32;;
83511;SDS011;73446;0.000;0.000;2024-02-21T15:08:20;1.05;;;0.22;;
83511;SDS011;73446;0.000;0.000;2024-02-21T15:11:04;1.83;;;0.45;;
83511;SDS011;73446;0.000;0.000;2024-02-21T15:13:49;1.65;;;0.73;;
83511;SDS011;73446;0.000;0.000;2024-02-21T15:16:33;1.33;;;0.40;;
83511;SDS011;73446;0.000;0.000;2024-02-21T15:19:17;1.98;;;0.03;;
83511;SDS011;73446;0.000;0.000;2024-02-21T15:22:01;1.15;;;0.35;;
83511;SDS011;73446;0.000;0.000;2024-02-21T15:24:46;2.85;;;0.32;;
83511;SDS011;73446;0.000;0.000;2024-02-21T15:27:32;5.50;;;0.05;;
83511;SDS011;73446;0.000;0.000;2024-02-21T15:30:16;4.57;;;0.45;;
83511;SDS011;73446;0.000;0.000;2024-02-21T15:33:00;2.22;;;0.68;;
83511;SDS011;73446;0.000;0.000;2024-02-21T15:35:45;5.93;;;1.38;;
83511;SDS011;73446;0.000;0.000;2024-02-21T15:38:29;3.28;;;0.30;;
83511;SDS011;73446;0.000;0.000;2024-02-21T15:41:16;3.95;;;0.45;;
83511;SDS011;73446;0.000;0.000;2024-02-21T15:44:00;4.18;;;0.13;;
83511;SDS011;73446;0.000;0.000;2024-02-21T15:46:44;2.67;;;0.00;;
83511;SDS011;73446;0.000;0.000;2024-02-21T15:49:28;6.65;;;0.65;;
83511;SDS011;73446;0.000;0.000;2024-02-21T15:52:12;3.03;;;0.25;;
83511;SDS011;73446;0.000;0.000;2024-02-21T15:54:56;2.22;;;0.38;;
83511;SDS011;73446;0.000;0.000;2024-02-21T15:57:41;4.53;;;0.52;;
83511;SDS011;73446;0.000;0.000;2024-02-21T16:00:25;6.07;;;0.13;;
83511;SDS011;73446;0.000;0.000;2024-02-21T16:03:09;8.70;;;0.65;;
83511;SDS011;73446;0.000;0.000;2024-02-21T16:05:53;8.98;;;0.47;;
83511;SDS011;73446;0.000;0.000;2024-02-21T16:08:37;4.43;;;0.45;;
83511;SDS011;73446;0.000;0.000;2024-02-21T16:11:24;7.07;;;0.30;;
83511;SDS011;73446;0.000;0.000;2024-02-21T16:14:08;9.45;;;0.75;;
83511;SDS011;73446;0.000;0.000;2024-02-21T16:16:53;10.38;;;0.43;;
83511;SDS011;73446;0.000;0.000;2024-02-21T16:19:37;4.10;;;0.45;;
83511;SDS011;73446;0.000;0.000;2024-02-21T16:22:21;6.43;;;0.93;;
83511;SDS011;73446;0.000;0.000;2024-02-21T16:25:05;9.43;;;0.30;;
83511;SDS011;73446;0.000;0.000;2024-02-21T16:27:50;12.95;;;0.28;;
83511;SDS011;73446;0.000;0.000;2024-02-21T16:30:34;9.98;;;1.35;;
83511;SDS011;73446;0.000;0.000;2024-02-21T16:33:18;5.32;;;1.00;;
83511;SDS011;73446;0.000;0.000;2024-02-21T16:36:02;6.70;;;0.57;;
83511;SDS011;73446;0.000;0.000;2024-02-21T16:38:51;3.50;;;0.52;;
83511;SDS011;73446;0.000;0.000;2024-02-21T16:41:38;3.67;;;0.22;;
83511;SDS011;73446;0.000;0.000;2024-02-21T16:44:22;8.35;;;1.60;;
83511;SDS011;73446;0.000;0.000;2024-02-21T16:47:07;8.68;;;1.02;;
83511;SDS011;73446;0.000;0.000;2024-02-21T16:49:52;3.97;;;0.57;;